sensor_id;sensor_type;location;lat;lon;timestamp;P1;durP1;ratioP1;P2;durP2;ratioP2
68126;SDS011;54931;52.098;21.006;2024-01-11T00:00:20;128.30;;;40.00;;
68126;SDS011;54931;52.098;21.006;2024-01-11T00:03:27;101.80;;;31.70;;
68126;SDS011;54931;52.098;21.006;2024-01-11T00:06:14;130.90;;;43.60;;
68126;SDS011;54931;52.098;21.006;2024-01-11T00:09:02;115.20;;;34.80;;
68126;SDS011;54931;52.098;21.006;2024-01-11T00:11:49;117.30;;;37.50;;
68126;SDS011;54931;52.098;21.006;2024-01-11T00:14:36;117.80;;;38.90;;
68126;SDS011;54931;52.098;21.006;2024-01-11T00:17:24;116.80;;;40.40;;
68126;SDS011;54931;52.098;21.006;2024-01-11T00:20:12;107.00;;;31.60;;
68126;SDS011;54931;52.098;21.006;2024-01-11T00:22:59;101.40;;;28.60;;
68126;SDS011;54931;52.098;21.006;2024-01-11T00:25:46;123.10;;;40.40;;
68126;SDS011;54931;52.098;21.006;2024-01-11T00:28:33;121.20;;;38.40;;
68126;SDS011;54931;52.098;21.006;2024-01-11T00:31:20;133.60;;;43.60;;
68126;SDS011;54931;52.098;21.006;2024-01-11T00:34:08;110.00;;;37.00;;
68126;SDS011;54931;52.098;21.006;2024-01-11T00:39:43;82.20;;;28.00;;
68126;SDS011;54931;52.098;21.006;2024-01-11T00:42:30;121.70;;;38.90;;
68126;SDS011;54931;52.098;21.006;2024-01-11T00:45:18;111.20;;;35.40;;
68126;SDS011;54931;52.098;21.006;2024-01-11T00:48:05;119.50;;;36.70;;
68126;SDS011;54931;52.098;21.006;2024-01-11T00:50:53;115.00;;;38.30;;
68126;SDS011;54931;52.098;21.006;2024-01-11T00:53:40;105.90;;;32.80;;
68126;SDS011;54931;52.098;21.006;2024-01-11T00:59:15;101.90;;;34.80;;
68126;SDS011;54931;52.098;21.006;2024-01-11T01:02:03;116.50;;;40.00;;
68126;SDS011;54931;52.098;21.006;2024-01-11T01:07:37;122.80;;;39.70;;
68126;SDS011;54931;52.098;21.006;2024-01-11T01:10:24;117.30;;;41.80;;
68126;SDS011;54931;52.098;21.006;2024-01-11T01:13:11;112.10;;;42.90;;
68126;SDS011;54931;52.098;21.006;2024-01-11T01:15:59;118.00;;;40.00;;
68126;SDS011;54931;52.098;21.006;2024-01-11T01:18:46;110.90;;;35.40;;
68126;SDS011;54931;52.098;21.006;2024-01-11T01:21:33;127.00;;;43.50;;
68126;SDS011;54931;52.098;21.006;2024-01-11T01:24:21;115.80;;;39.10;;
68126;SDS011;54931;52.098;21.006;2024-01-11T01:27:08;112.50;;;39.50;;
68126;SDS011;54931;52.098;21.006;2024-01-11T01:29:55;107.20;;;35.00;;
68126;SDS011;54931;52.098;21.006;2024-01-11T01:32:42;104.10;;;35.50;;
68126;SDS011;54931;52.098;21.006;2024-01-11T01:35:30;120.00;;;41.10;;
68126;SDS011;54931;52.098;21.006;2024-01-11T01:38:17;117.00;;;36.80;;
68126;SDS011;54931;52.098;21.006;2024-01-11T01:41:04;106.60;;;40.20;;
68126;SDS011;54931;52.098;21.006;2024-01-11T01:46:39;105.60;;;34.10;;
68126;SDS011;54931;52.098;21.006;2024-01-11T01:49:27;104.00;;;33.60;;
68126;SDS011;54931;52.098;21.006;2024-01-11T01:52:15;124.80;;;42.00;;
68126;SDS011;54931;52.098;21.006;2024-01-11T01:55:05;117.20;;;38.10;;
68126;SDS011;54931;52.098;21.006;2024-01-11T01:57:57;105.50;;;37.70;;
68126;SDS011;54931;52.098;21.006;2024-01-11T02:00:47;129.90;;;42.00;;
68126;SDS011;54931;52.098;21.006;2024-01-11T02:03:37;98.00;;;37.30;;
68126;SDS011;54931;52.098;21.006;2024-01-11T02:06:25;119.80;;;39.60;;
68126;SDS011;54931;52.098;21.006;2024-01-11T02:09:17;107.40;;;36.70;;
68126;SDS011;54931;52.098;21.006;2024-01-11T02:12:05;113.50;;;37.30;;
68126;SDS011;54931;52.098;21.006;2024-01-11T02:14:53;119.90;;;40.40;;
68126;SDS011;54931;52.098;21.006;2024-01-11T02:20:28;93.10;;;30.70;;
68126;SDS011;54931;52.098;21.006;2024-01-11T02:23:18;103.50;;;32.90;;
68126;SDS011;54931;52.098;21.006;2024-01-11T02:26:08;113.10;;;40.30;;
68126;SDS011;54931;52.098;21.006;2024-01-11T02:28:55;104.60;;;32.50;;
68126;SDS011;54931;52.098;21.006;2024-01-11T02:31:42;102.10;;;37.40;;
68126;SDS011;54931;52.098;21.006;2024-01-11T02:34:30;129.60;;;44.10;;
68126;SDS011;54931;52.098;21.006;2024-01-11T02:37:17;114.10;;;38.40;;
68126;SDS011;54931;52.098;21.006;2024-01-11T02:40:08;107.30;;;36.80;;
68126;SDS011;54931;52.098;21.006;2024-01-11T02:42:56;123.00;;;39.40;;
68126;SDS011;54931;52.098;21.006;2024-01-11T02:45:43;104.80;;;35.80;;
68126;SDS011;54931;52.098;21.006;2024-01-11T02:48:31;122.30;;;38.30;;
68126;SDS011;54931;52.098;21.006;2024-01-11T02:51:18;119.20;;;44.10;;
68126;SDS011;54931;52.098;21.006;2024-01-11T02:54:05;123.50;;;42.10;;
68126;SDS011;54931;52.098;21.006;2024-01-11T02:56:53;124.60;;;42.50;;
68126;SDS011;54931;52.098;21.006;2024-01-11T02:59:42;130.30;;;44.90;;
68126;SDS011;54931;52.098;21.006;2024-01-11T03:02:30;120.70;;;42.10;;
68126;SDS011;54931;52.098;21.006;2024-01-11T03:05:17;103.30;;;38.60;;
68126;SDS011;54931;52.098;21.006;2024-01-11T03:08:05;100.10;;;33.00;;
68126;SDS011;54931;52.098;21.006;2024-01-11T03:13:39;105.40;;;35.90;;
68126;SDS011;54931;52.098;21.006;2024-01-11T03:16:26;128.70;;;43.90;;
68126;SDS011;54931;52.098;21.006;2024-01-11T03:19:14;112.90;;;39.10;;
68126;SDS011;54931;52.098;21.006;2024-01-11T03:22:01;122.40;;;43.60;;
68126;SDS011;54931;52.098;21.006;2024-01-11T03:24:52;128.50;;;41.60;;
68126;SDS011;54931;52.098;21.006;2024-01-11T03:27:40;105.70;;;37.00;;
68126;SDS011;54931;52.098;21.006;2024-01-11T03:30:28;129.20;;;45.20;;
68126;SDS011;54931;52.098;21.006;2024-01-11T03:33:15;114.40;;;42.30;;
68126;SDS011;54931;52.098;21.006;2024-01-11T03:36:10;106.90;;;35.80;;
68126;SDS011;54931;52.098;21.006;2024-01-11T03:38:58;128.00;;;44.20;;
68126;SDS011;54931;52.098;21.006;2024-01-11T03:41:45;123.90;;;42.60;;
68126;SDS011;54931;52.098;21.006;2024-01-11T03:44:32;111.30;;;34.30;;
68126;SDS011;54931;52.098;21.006;2024-01-11T03:47:20;118.80;;;41.20;;
68126;SDS011;54931;52.098;21.006;2024-01-11T03:52:55;99.70;;;30.90;;
68126;SDS011;54931;52.098;21.006;2024-01-11T03:58:29;110.70;;;34.40;;
68126;SDS011;54931;52.098;21.006;2024-01-11T04:01:17;122.30;;;42.60;;
68126;SDS011;54931;52.098;21.006;2024-01-11T04:04:04;106.40;;;37.80;;
68126;SDS011;54931;52.098;21.006;2024-01-11T04:06:51;110.00;;;36.90;;
68126;SDS011;54931;52.098;21.006;2024-01-11T04:09:39;84.30;;;28.40;;
68126;SDS011;54931;52.098;21.006;2024-01-11T04:15:13;91.10;;;28.90;;
68126;SDS011;54931;52.098;21.006;2024-01-11T04:20:48;94.50;;;31.40;;
68126;SDS011;54931;52.098;21.006;2024-01-11T04:23:36;100.60;;;37.70;;
68126;SDS011;54931;52.098;21.006;2024-01-11T04:26:23;129.40;;;42.70;;
68126;SDS011;54931;52.098;21.006;2024-01-11T04:29:10;131.20;;;43.00;;
68126;SDS011;54931;52.098;21.006;2024-01-11T04:31:57;122.20;;;37.00;;
68126;SDS011;54931;52.098;21.006;2024-01-11T04:34:45;139.90;;;43.40;;
68126;SDS011;54931;52.098;21.006;2024-01-11T04:37:33;94.70;;;33.30;;
68126;SDS011;54931;52.098;21.006;2024-01-11T04:40:22;112.60;;;33.80;;
68126;SDS011;54931;52.098;21.006;2024-01-11T04:43:09;109.70;;;33.10;;
68126;SDS011;54931;52.098;21.006;2024-01-11T04:45:57;127.50;;;39.20;;
68126;SDS011;54931;52.098;21.006;2024-01-11T04:48:44;91.10;;;26.40;;
68126;SDS011;54931;52.098;21.006;2024-01-11T04:51:32;79.40;;;29.20;;
68126;SDS011;54931;52.098;21.006;2024-01-11T04:54:19;99.10;;;33.30;;
68126;SDS011;54931;52.098;21.006;2024-01-11T04:57:07;93.00;;;30.80;;
68126;SDS011;54931;52.098;21.006;2024-01-11T04:59:54;88.80;;;27.30;;
68126;SDS011;54931;52.098;21.006;2024-01-11T05:02:41;94.70;;;28.60;;
68126;SDS011;54931;52.098;21.006;2024-01-11T05:05:29;100.40;;;32.60;;
68126;SDS011;54931;52.098;21.006;2024-01-11T05:08:16;97.70;;;33.00;;
68126;SDS011;54931;52.098;21.006;2024-01-11T05:11:04;195.80;;;56.20;;
68126;SDS011;54931;52.098;21.006;2024-01-11T05:13:51;105.40;;;36.30;;
68126;SDS011;54931;52.098;21.006;2024-01-11T05:16:39;89.70;;;27.70;;
68126;SDS011;54931;52.098;21.006;2024-01-11T05:19:27;90.70;;;30.20;;
68126;SDS011;54931;52.098;21.006;2024-01-11T05:22:14;86.80;;;29.60;;
68126;SDS011;54931;52.098;21.006;2024-01-11T05:25:02;101.90;;;33.50;;
68126;SDS011;54931;52.098;21.006;2024-01-11T05:27:49;94.50;;;27.90;;
68126;SDS011;54931;52.098;21.006;2024-01-11T05:30:36;89.30;;;26.00;;
68126;SDS011;54931;52.098;21.006;2024-01-11T05:33:24;76.80;;;26.00;;
68126;SDS011;54931;52.098;21.006;2024-01-11T05:36:11;98.30;;;29.10;;
68126;SDS011;54931;52.098;21.006;2024-01-11T05:41:45;80.40;;;26.80;;
68126;SDS011;54931;52.098;21.006;2024-01-11T05:44:33;67.70;;;22.00;;
68126;SDS011;54931;52.098;21.006;2024-01-11T05:47:20;74.70;;;24.50;;
68126;SDS011;54931;52.098;21.006;2024-01-11T05:50:08;84.60;;;29.10;;
68126;SDS011;54931;52.098;21.006;2024-01-11T05:52:55;73.60;;;23.40;;
68126;SDS011;54931;52.098;21.006;2024-01-11T05:55:43;73.50;;;26.90;;
68126;SDS011;54931;52.098;21.006;2024-01-11T06:01:18;70.10;;;24.20;;
68126;SDS011;54931;52.098;21.006;2024-01-11T06:06:53;61.60;;;21.00;;
68126;SDS011;54931;52.098;21.006;2024-01-11T06:09:40;51.10;;;17.40;;
68126;SDS011;54931;52.098;21.006;2024-01-11T06:12:27;55.20;;;17.00;;
68126;SDS011;54931;52.098;21.006;2024-01-11T06:15:14;58.30;;;17.90;;
68126;SDS011;54931;52.098;21.006;2024-01-11T06:18:02;53.70;;;16.60;;
68126;SDS011;54931;52.098;21.006;2024-01-11T06:20:49;76.00;;;22.70;;
68126;SDS011;54931;52.098;21.006;2024-01-11T06:23:37;55.40;;;17.00;;
68126;SDS011;54931;52.098;21.006;2024-01-11T06:26:24;57.40;;;18.80;;
68126;SDS011;54931;52.098;21.006;2024-01-11T06:29:12;44.60;;;16.30;;
68126;SDS011;54931;52.098;21.006;2024-01-11T06:31:59;60.00;;;23.90;;
68126;SDS011;54931;52.098;21.006;2024-01-11T06:34:46;57.60;;;23.20;;
68126;SDS011;54931;52.098;21.006;2024-01-11T06:37:34;63.00;;;24.30;;
68126;SDS011;54931;52.098;21.006;2024-01-11T06:43:09;45.40;;;16.50;;
68126;SDS011;54931;52.098;21.006;2024-01-11T06:45:56;52.20;;;19.80;;
68126;SDS011;54931;52.098;21.006;2024-01-11T06:48:43;57.10;;;19.80;;
68126;SDS011;54931;52.098;21.006;2024-01-11T06:51:31;53.20;;;21.40;;
68126;SDS011;54931;52.098;21.006;2024-01-11T06:57:06;57.00;;;19.30;;
68126;SDS011;54931;52.098;21.006;2024-01-11T06:59:53;63.40;;;25.30;;
68126;SDS011;54931;52.098;21.006;2024-01-11T07:02:41;56.70;;;23.90;;
68126;SDS011;54931;52.098;21.006;2024-01-11T07:05:28;52.30;;;17.30;;
68126;SDS011;54931;52.098;21.006;2024-01-11T07:08:16;40.80;;;14.50;;
68126;SDS011;54931;52.098;21.006;2024-01-11T07:11:04;53.90;;;19.40;;
68126;SDS011;54931;52.098;21.006;2024-01-11T07:13:52;47.70;;;16.90;;
68126;SDS011;54931;52.098;21.006;2024-01-11T07:16:39;45.60;;;16.50;;
68126;SDS011;54931;52.098;21.006;2024-01-11T07:19:26;43.50;;;16.20;;
68126;SDS011;54931;52.098;21.006;2024-01-11T07:22:13;56.30;;;18.60;;
68126;SDS011;54931;52.098;21.006;2024-01-11T07:25:01;54.90;;;18.80;;
68126;SDS011;54931;52.098;21.006;2024-01-11T07:27:48;49.80;;;15.40;;
68126;SDS011;54931;52.098;21.006;2024-01-11T07:30:35;50.90;;;17.10;;
68126;SDS011;54931;52.098;21.006;2024-01-11T07:33:22;53.90;;;18.70;;
68126;SDS011;54931;52.098;21.006;2024-01-11T07:36:10;57.60;;;19.90;;
68126;SDS011;54931;52.098;21.006;2024-01-11T07:38:58;56.00;;;19.90;;
68126;SDS011;54931;52.098;21.006;2024-01-11T07:44:33;53.00;;;16.50;;
68126;SDS011;54931;52.098;21.006;2024-01-11T07:47:20;51.40;;;17.70;;
68126;SDS011;54931;52.098;21.006;2024-01-11T07:50:08;62.60;;;19.80;;
68126;SDS011;54931;52.098;21.006;2024-01-11T07:52:56;73.70;;;25.10;;
68126;SDS011;54931;52.098;21.006;2024-01-11T07:55:43;58.00;;;19.80;;
68126;SDS011;54931;52.098;21.006;2024-01-11T07:58:34;67.80;;;22.90;;
68126;SDS011;54931;52.098;21.006;2024-01-11T08:01:24;64.10;;;21.60;;
68126;SDS011;54931;52.098;21.006;2024-01-11T08:06:59;60.50;;;23.40;;
68126;SDS011;54931;52.098;21.006;2024-01-11T08:09:47;95.30;;;29.80;;
68126;SDS011;54931;52.098;21.006;2024-01-11T08:12:35;74.00;;;27.40;;
68126;SDS011;54931;52.098;21.006;2024-01-11T08:15:23;50.40;;;17.90;;
68126;SDS011;54931;52.098;21.006;2024-01-11T08:18:11;80.40;;;27.80;;
68126;SDS011;54931;52.098;21.006;2024-01-11T08:23:45;106.90;;;33.70;;
68126;SDS011;54931;52.098;21.006;2024-01-11T08:26:36;130.80;;;35.70;;
68126;SDS011;54931;52.098;21.006;2024-01-11T08:29:23;74.00;;;21.30;;
68126;SDS011;54931;52.098;21.006;2024-01-11T08:32:11;57.00;;;18.60;;
68126;SDS011;54931;52.098;21.006;2024-01-11T08:34:58;60.00;;;19.00;;
68126;SDS011;54931;52.098;21.006;2024-01-11T08:37:45;61.80;;;22.20;;
68126;SDS011;54931;52.098;21.006;2024-01-11T08:43:20;54.00;;;18.80;;
68126;SDS011;54931;52.098;21.006;2024-01-11T08:46:08;66.90;;;22.50;;
68126;SDS011;54931;52.098;21.006;2024-01-11T08:48:55;65.90;;;21.60;;
68126;SDS011;54931;52.098;21.006;2024-01-11T08:51:43;79.20;;;25.20;;
68126;SDS011;54931;52.098;21.006;2024-01-11T08:54:31;146.60;;;43.20;;
68126;SDS011;54931;52.098;21.006;2024-01-11T08:57:21;98.50;;;29.10;;
68126;SDS011;54931;52.098;21.006;2024-01-11T09:00:09;56.30;;;17.50;;
68126;SDS011;54931;52.098;21.006;2024-01-11T09:02:58;53.20;;;18.00;;
68126;SDS011;54931;52.098;21.006;2024-01-11T09:08:33;66.70;;;21.20;;
68126;SDS011;54931;52.098;21.006;2024-01-11T09:14:07;59.80;;;19.80;;
68126;SDS011;54931;52.098;21.006;2024-01-11T09:16:58;74.40;;;25.20;;
68126;SDS011;54931;52.098;21.006;2024-01-11T09:19:45;95.40;;;28.70;;
68126;SDS011;54931;52.098;21.006;2024-01-11T09:22:32;35.10;;;10.40;;
68126;SDS011;54931;52.098;21.006;2024-01-11T09:25:19;88.40;;;24.80;;
68126;SDS011;54931;52.098;21.006;2024-01-11T09:28:07;92.60;;;25.80;;
68126;SDS011;54931;52.098;21.006;2024-01-11T09:33:46;69.70;;;23.60;;
68126;SDS011;54931;52.098;21.006;2024-01-11T09:36:35;76.20;;;23.30;;
68126;SDS011;54931;52.098;21.006;2024-01-11T09:39:25;46.70;;;16.80;;
68126;SDS011;54931;52.098;21.006;2024-01-11T09:42:13;66.70;;;21.20;;
68126;SDS011;54931;52.098;21.006;2024-01-11T09:45:01;48.50;;;16.10;;
68126;SDS011;54931;52.098;21.006;2024-01-11T09:47:49;48.30;;;17.00;;
68126;SDS011;54931;52.098;21.006;2024-01-11T09:50:38;42.50;;;13.80;;
68126;SDS011;54931;52.098;21.006;2024-01-11T09:53:28;37.00;;;13.40;;
68126;SDS011;54931;52.098;21.006;2024-01-11T09:56:17;45.70;;;15.80;;
68126;SDS011;54931;52.098;21.006;2024-01-11T09:59:06;45.10;;;13.80;;
68126;SDS011;54931;52.098;21.006;2024-01-11T10:01:57;46.70;;;18.60;;
68126;SDS011;54931;52.098;21.006;2024-01-11T10:04:45;66.90;;;23.20;;
68126;SDS011;54931;52.098;21.006;2024-01-11T10:07:34;40.50;;;16.80;;
68126;SDS011;54931;52.098;21.006;2024-01-11T10:10:23;55.60;;;17.40;;
68126;SDS011;54931;52.098;21.006;2024-01-11T10:13:10;44.50;;;17.70;;
68126;SDS011;54931;52.098;21.006;2024-01-11T10:16:09;43.90;;;15.60;;
68126;SDS011;54931;52.098;21.006;2024-01-11T10:19:00;47.30;;;16.50;;
68126;SDS011;54931;52.098;21.006;2024-01-11T10:21:47;46.10;;;16.70;;
68126;SDS011;54931;52.098;21.006;2024-01-11T10:27:26;32.30;;;12.20;;
68126;SDS011;54931;52.098;21.006;2024-01-11T10:30:15;43.10;;;17.70;;
68126;SDS011;54931;52.098;21.006;2024-01-11T10:33:04;50.70;;;19.40;;
68126;SDS011;54931;52.098;21.006;2024-01-11T10:35:52;36.40;;;13.50;;
68126;SDS011;54931;52.098;21.006;2024-01-11T10:38:39;43.60;;;16.40;;
68126;SDS011;54931;52.098;21.006;2024-01-11T10:41:28;52.50;;;19.60;;
68126;SDS011;54931;52.098;21.006;2024-01-11T10:44:20;44.80;;;15.70;;
68126;SDS011;54931;52.098;21.006;2024-01-11T10:47:09;44.70;;;18.00;;
68126;SDS011;54931;52.098;21.006;2024-01-11T10:49:59;47.60;;;15.10;;
68126;SDS011;54931;52.098;21.006;2024-01-11T10:53:16;51.00;;;18.20;;
68126;SDS011;54931;52.098;21.006;2024-01-11T10:56:28;45.90;;;17.80;;
68126;SDS011;54931;52.098;21.006;2024-01-11T10:59:20;54.00;;;21.00;;
68126;SDS011;54931;52.098;21.006;2024-01-11T11:02:13;72.80;;;21.20;;
68126;SDS011;54931;52.098;21.006;2024-01-11T11:05:04;86.00;;;23.20;;
68126;SDS011;54931;52.098;21.006;2024-01-11T11:07:58;49.90;;;15.30;;
68126;SDS011;54931;52.098;21.006;2024-01-11T11:10:51;68.70;;;19.80;;
68126;SDS011;54931;52.098;21.006;2024-01-11T11:13:43;86.20;;;27.00;;
68126;SDS011;54931;52.098;21.006;2024-01-11T11:16:33;58.80;;;19.40;;
68126;SDS011;54931;52.098;21.006;2024-01-11T11:19:20;68.00;;;20.30;;
68126;SDS011;54931;52.098;21.006;2024-01-11T11:22:08;60.50;;;19.90;;
68126;SDS011;54931;52.098;21.006;2024-01-11T11:25:09;78.20;;;24.70;;
68126;SDS011;54931;52.098;21.006;2024-01-11T11:28:00;71.60;;;21.80;;
68126;SDS011;54931;52.098;21.006;2024-01-11T11:30:53;57.40;;;17.60;;
68126;SDS011;54931;52.098;21.006;2024-01-11T11:33:42;79.40;;;24.30;;
68126;SDS011;54931;52.098;21.006;2024-01-11T11:36:30;64.60;;;20.40;;
68126;SDS011;54931;52.098;21.006;2024-01-11T11:39:18;74.00;;;24.90;;
68126;SDS011;54931;52.098;21.006;2024-01-11T11:42:06;81.20;;;22.80;;
68126;SDS011;54931;52.098;21.006;2024-01-11T11:44:54;76.90;;;19.00;;
68126;SDS011;54931;52.098;21.006;2024-01-11T11:47:41;73.80;;;22.50;;
68126;SDS011;54931;52.098;21.006;2024-01-11T11:50:31;80.20;;;25.80;;
68126;SDS011;54931;52.098;21.006;2024-01-11T11:53:19;76.10;;;24.70;;
68126;SDS011;54931;52.098;21.006;2024-01-11T11:56:11;77.50;;;22.00;;
68126;SDS011;54931;52.098;21.006;2024-01-11T11:59:04;68.50;;;23.20;;
68126;SDS011;54931;52.098;21.006;2024-01-11T12:01:52;68.90;;;19.60;;
68126;SDS011;54931;52.098;21.006;2024-01-11T12:04:39;77.80;;;24.80;;
68126;SDS011;54931;52.098;21.006;2024-01-11T12:07:27;77.80;;;23.30;;
68126;SDS011;54931;52.098;21.006;2024-01-11T12:10:15;66.40;;;25.20;;
68126;SDS011;54931;52.098;21.006;2024-01-11T12:13:03;73.70;;;21.00;;
68126;SDS011;54931;52.098;21.006;2024-01-11T12:15:51;72.80;;;22.00;;
68126;SDS011;54931;52.098;21.006;2024-01-11T12:18:40;70.00;;;24.00;;
68126;SDS011;54931;52.098;21.006;2024-01-11T12:21:28;85.80;;;22.40;;
68126;SDS011;54931;52.098;21.006;2024-01-11T12:24:16;75.70;;;23.90;;
68126;SDS011;54931;52.098;21.006;2024-01-11T12:27:04;78.20;;;23.50;;
68126;SDS011;54931;52.098;21.006;2024-01-11T12:29:52;63.70;;;19.20;;
68126;SDS011;54931;52.098;21.006;2024-01-11T12:32:40;68.40;;;21.30;;
68126;SDS011;54931;52.098;21.006;2024-01-11T12:35:27;53.60;;;17.30;;
68126;SDS011;54931;52.098;21.006;2024-01-11T12:38:15;66.90;;;19.60;;
68126;SDS011;54931;52.098;21.006;2024-01-11T12:41:04;67.50;;;19.60;;
68126;SDS011;54931;52.098;21.006;2024-01-11T12:43:53;71.90;;;24.30;;
68126;SDS011;54931;52.098;21.006;2024-01-11T12:49:28;62.60;;;17.50;;
68126;SDS011;54931;52.098;21.006;2024-01-11T12:52:18;57.20;;;21.40;;
68126;SDS011;54931;52.098;21.006;2024-01-11T12:55:08;59.00;;;21.70;;
68126;SDS011;54931;52.098;21.006;2024-01-11T12:58:08;68.90;;;22.10;;
68126;SDS011;54931;52.098;21.006;2024-01-11T13:00:56;54.40;;;18.30;;
68126;SDS011;54931;52.098;21.006;2024-01-11T13:03:45;62.00;;;21.40;;
68126;SDS011;54931;52.098;21.006;2024-01-11T13:06:34;68.70;;;21.70;;
68126;SDS011;54931;52.098;21.006;2024-01-11T13:09:22;63.00;;;21.60;;
68126;SDS011;54931;52.098;21.006;2024-01-11T13:12:10;59.70;;;17.70;;
68126;SDS011;54931;52.098;21.006;2024-01-11T13:14:57;60.50;;;18.20;;
68126;SDS011;54931;52.098;21.006;2024-01-11T13:17:45;46.70;;;15.80;;
68126;SDS011;54931;52.098;21.006;2024-01-11T13:20:32;43.90;;;15.30;;
68126;SDS011;54931;52.098;21.006;2024-01-11T13:23:20;56.30;;;20.10;;
68126;SDS011;54931;52.098;21.006;2024-01-11T13:28:55;59.20;;;20.80;;
68126;SDS011;54931;52.098;21.006;2024-01-11T13:34:30;46.60;;;12.20;;
68126;SDS011;54931;52.098;21.006;2024-01-11T13:40:06;61.70;;;20.20;;
68126;SDS011;54931;52.098;21.006;2024-01-11T13:42:57;68.10;;;22.80;;
68126;SDS011;54931;52.098;21.006;2024-01-11T13:45:45;56.80;;;19.50;;
68126;SDS011;54931;52.098;21.006;2024-01-11T13:48:33;59.50;;;20.20;;
68126;SDS011;54931;52.098;21.006;2024-01-11T13:51:21;83.30;;;25.90;;
68126;SDS011;54931;52.098;21.006;2024-01-11T13:54:08;57.20;;;20.50;;
68126;SDS011;54931;52.098;21.006;2024-01-11T13:59:43;86.30;;;28.90;;
68126;SDS011;54931;52.098;21.006;2024-01-11T14:02:31;117.80;;;37.20;;
68126;SDS011;54931;52.098;21.006;2024-01-11T14:05:20;126.40;;;35.30;;
68126;SDS011;54931;52.098;21.006;2024-01-11T14:08:07;82.90;;;26.90;;
68126;SDS011;54931;52.098;21.006;2024-01-11T14:13:43;115.10;;;34.70;;
68126;SDS011;54931;52.098;21.006;2024-01-11T14:19:18;87.00;;;29.90;;
68126;SDS011;54931;52.098;21.006;2024-01-11T14:22:05;82.70;;;27.10;;
68126;SDS011;54931;52.098;21.006;2024-01-11T14:24:53;84.60;;;26.20;;
68126;SDS011;54931;52.098;21.006;2024-01-11T14:30:28;106.30;;;30.00;;
68126;SDS011;54931;52.098;21.006;2024-01-11T14:33:16;78.90;;;25.20;;
68126;SDS011;54931;52.098;21.006;2024-01-11T14:38:51;89.60;;;30.30;;
68126;SDS011;54931;52.098;21.006;2024-01-11T14:44:26;53.60;;;18.60;;
68126;SDS011;54931;52.098;21.006;2024-01-11T14:55:38;83.90;;;29.60;;
68126;SDS011;54931;52.098;21.006;2024-01-11T14:58:26;96.10;;;29.50;;
68126;SDS011;54931;52.098;21.006;2024-01-11T15:01:13;64.00;;;25.30;;
68126;SDS011;54931;52.098;21.006;2024-01-11T15:06:48;95.80;;;31.90;;
68126;SDS011;54931;52.098;21.006;2024-01-11T15:09:36;95.90;;;30.90;;
68126;SDS011;54931;52.098;21.006;2024-01-11T15:12:24;67.20;;;22.30;;
68126;SDS011;54931;52.098;21.006;2024-01-11T15:17:59;63.60;;;20.10;;
68126;SDS011;54931;52.098;21.006;2024-01-11T15:23:34;68.70;;;23.90;;
68126;SDS011;54931;52.098;21.006;2024-01-11T15:26:21;67.70;;;27.30;;
68126;SDS011;54931;52.098;21.006;2024-01-11T15:31:56;77.00;;;24.30;;
68126;SDS011;54931;52.098;21.006;2024-01-11T15:37:31;78.30;;;24.00;;
68126;SDS011;54931;52.098;21.006;2024-01-11T15:40:20;67.80;;;24.50;;
68126;SDS011;54931;52.098;21.006;2024-01-11T15:45:55;78.80;;;25.10;;
68126;SDS011;54931;52.098;21.006;2024-01-11T15:48:43;66.30;;;21.70;;
68126;SDS011;54931;52.098;21.006;2024-01-11T15:54:18;81.20;;;27.30;;
68126;SDS011;54931;52.098;21.006;2024-01-11T15:57:07;63.30;;;20.70;;
68126;SDS011;54931;52.098;21.006;2024-01-11T15:59:55;69.30;;;21.80;;
68126;SDS011;54931;52.098;21.006;2024-01-11T16:02:43;67.60;;;23.80;;
68126;SDS011;54931;52.098;21.006;2024-01-11T16:05:32;61.80;;;21.20;;
68126;SDS011;54931;52.098;21.006;2024-01-11T16:08:19;60.60;;;24.30;;
68126;SDS011;54931;52.098;21.006;2024-01-11T16:11:08;57.90;;;23.80;;
68126;SDS011;54931;52.098;21.006;2024-01-11T16:13:56;55.50;;;22.30;;
68126;SDS011;54931;52.098;21.006;2024-01-11T16:16:45;53.00;;;21.10;;
68126;SDS011;54931;52.098;21.006;2024-01-11T16:19:33;60.70;;;23.40;;
68126;SDS011;54931;52.098;21.006;2024-01-11T16:22:23;53.20;;;19.90;;
68126;SDS011;54931;52.098;21.006;2024-01-11T16:25:12;55.20;;;21.60;;
68126;SDS011;54931;52.098;21.006;2024-01-11T16:28:00;55.90;;;21.50;;
68126;SDS011;54931;52.098;21.006;2024-01-11T16:30:47;54.40;;;20.20;;
68126;SDS011;54931;52.098;21.006;2024-01-11T16:36:22;56.60;;;21.40;;
68126;SDS011;54931;52.098;21.006;2024-01-11T16:41:57;57.50;;;24.60;;
68126;SDS011;54931;52.098;21.006;2024-01-11T16:44:45;41.80;;;19.20;;
68126;SDS011;54931;52.098;21.006;2024-01-11T16:47:34;57.00;;;22.50;;
68126;SDS011;54931;52.098;21.006;2024-01-11T16:50:23;52.20;;;20.70;;
68126;SDS011;54931;52.098;21.006;2024-01-11T16:53:10;51.00;;;20.50;;
68126;SDS011;54931;52.098;21.006;2024-01-11T16:55:58;85.20;;;29.30;;
68126;SDS011;54931;52.098;21.006;2024-01-11T16:58:46;95.00;;;29.80;;
68126;SDS011;54931;52.098;21.006;2024-01-11T17:01:33;97.20;;;32.90;;
68126;SDS011;54931;52.098;21.006;2024-01-11T17:04:21;51.90;;;20.10;;
68126;SDS011;54931;52.098;21.006;2024-01-11T17:07:09;93.30;;;33.20;;
68126;SDS011;54931;52.098;21.006;2024-01-11T17:09:56;54.60;;;21.70;;
68126;SDS011;54931;52.098;21.006;2024-01-11T17:12:44;54.10;;;24.80;;
68126;SDS011;54931;52.098;21.006;2024-01-11T17:18:19;54.40;;;23.20;;
68126;SDS011;54931;52.098;21.006;2024-01-11T17:21:06;87.00;;;35.80;;
68126;SDS011;54931;52.098;21.006;2024-01-11T17:23:55;49.90;;;21.90;;
68126;SDS011;54931;52.098;21.006;2024-01-11T17:26:42;32.40;;;17.00;;
68126;SDS011;54931;52.098;21.006;2024-01-11T17:29:31;53.60;;;23.40;;
68126;SDS011;54931;52.098;21.006;2024-01-11T17:35:07;46.10;;;20.70;;
68126;SDS011;54931;52.098;21.006;2024-01-11T17:37:55;69.90;;;27.80;;
68126;SDS011;54931;52.098;21.006;2024-01-11T17:40:43;118.70;;;41.40;;
68126;SDS011;54931;52.098;21.006;2024-01-11T17:43:31;130.90;;;50.30;;
68126;SDS011;54931;52.098;21.006;2024-01-11T17:46:24;107.30;;;41.40;;
68126;SDS011;54931;52.098;21.006;2024-01-11T17:49:12;105.80;;;38.80;;
68126;SDS011;54931;52.098;21.006;2024-01-11T17:52:01;322.70;;;91.60;;
68126;SDS011;54931;52.098;21.006;2024-01-11T17:54:49;81.60;;;29.70;;
68126;SDS011;54931;52.098;21.006;2024-01-11T17:57:38;196.80;;;50.90;;
68126;SDS011;54931;52.098;21.006;2024-01-11T18:00:26;305.00;;;77.40;;
68126;SDS011;54931;52.098;21.006;2024-01-11T18:03:17;341.40;;;78.90;;
68126;SDS011;54931;52.098;21.006;2024-01-11T18:08:56;232.00;;;63.80;;
68126;SDS011;54931;52.098;21.006;2024-01-11T18:11:44;81.90;;;30.10;;
68126;SDS011;54931;52.098;21.006;2024-01-11T18:14:32;115.40;;;39.20;;
68126;SDS011;54931;52.098;21.006;2024-01-11T18:17:20;129.30;;;37.70;;
68126;SDS011;54931;52.098;21.006;2024-01-11T18:20:09;28.60;;;13.20;;